createdAt,value
2023-01-12T00:02:21.246Z,1.00
2023-01-12T00:04:49.517Z,1.00
2023-01-12T00:07:18.265Z,1.00
2023-01-12T00:09:46.595Z,1.00
2023-01-12T00:12:16.181Z,99.90
2023-01-12T00:14:44.348Z,1.00
2023-01-12T00:17:16.827Z,1.00
2023-01-12T00:19:45.124Z,99.90
2023-01-12T00:22:16.727Z,29.10
2023-01-12T00:24:48.028Z,1.00
2023-01-12T00:27:19.363Z,99.90
2023-01-12T00:29:48.653Z,1.00
2023-01-12T00:32:18.437Z,1.00
2023-01-12T00:34:46.703Z,1.00
2023-01-12T00:37:15.048Z,1.00
2023-01-12T00:39:53.069Z,99.90
2023-01-12T00:42:44.105Z,1.00
2023-01-12T00:45:24.778Z,99.90
2023-01-12T00:47:54.480Z,5.80
2023-01-12T00:50:23.931Z,1.00
2023-01-12T00:52:52.135Z,99.90
2023-01-12T00:55:20.351Z,1.00
2023-01-12T00:57:50.015Z,99.90
2023-01-12T01:00:18.930Z,99.90
2023-01-12T01:02:47.345Z,1.00
2023-01-12T01:05:15.740Z,1.00
2023-01-12T01:07:46.058Z,1.00
2023-01-12T01:10:15.412Z,99.90
2023-01-12T01:12:43.760Z,99.90
2023-01-12T01:15:13.786Z,99.90
2023-01-12T01:17:41.973Z,99.90
2023-01-12T01:20:11.729Z,99.90
2023-01-12T01:22:39.852Z,99.90
2023-01-12T01:25:08.762Z,99.90
2023-01-12T01:27:36.877Z,99.90
2023-01-12T01:30:05.697Z,99.90
2023-01-12T01:32:35.239Z,99.90
2023-01-12T01:35:03.441Z,99.90
2023-01-12T01:37:31.571Z,99.90
2023-01-12T01:39:59.815Z,99.90
2023-01-12T01:42:30.835Z,99.90
2023-01-12T01:45:01.426Z,99.90
2023-01-12T01:47:35.746Z,99.90
2023-01-12T01:50:07.194Z,99.90
2023-01-12T01:52:38.142Z,99.90
2023-01-12T01:55:10.068Z,99.90
2023-01-12T01:57:44.330Z,99.90
2023-01-12T02:00:14.168Z,99.90
2023-01-12T02:02:46.950Z,99.90
2023-01-12T02:05:19.115Z,99.90
2023-01-12T02:07:47.793Z,99.90
2023-01-12T02:10:16.327Z,99.90
2023-01-12T02:13:02.077Z,99.90
2023-01-12T02:15:54.039Z,99.90
2023-01-12T02:18:29.650Z,99.90
2023-01-12T02:21:19.064Z,99.90
2023-01-12T02:24:08.671Z,99.90
2023-01-12T02:27:08.964Z,99.90
2023-01-12T02:30:29.151Z,99.90
2023-01-12T02:33:09.585Z,99.90
2023-01-12T02:35:46.456Z,99.90
2023-01-12T02:38:23.586Z,2.10
2023-01-12T02:40:59.555Z,1.00
2023-01-12T02:43:29.490Z,1.00
2023-01-12T02:46:04.372Z,1.00
2023-01-12T02:48:39.100Z,1.00
2023-01-12T02:51:11.302Z,99.90
2023-01-12T02:53:44.718Z,15.10
2023-01-12T02:56:15.659Z,99.90
2023-01-12T02:58:48.267Z,86.10
2023-01-12T03:01:19.261Z,99.90
2023-01-12T03:03:51.729Z,1.00
2023-01-12T03:06:20.825Z,1.00
2023-01-12T03:08:50.922Z,1.00
2023-01-12T03:11:21.583Z,1.00
2023-01-12T03:13:53.094Z,1.00
2023-01-12T03:16:24.943Z,99.90
2023-01-12T03:18:58.216Z,1.00
2023-01-12T03:21:31.675Z,99.90
2023-01-12T03:24:05.296Z,99.90
2023-01-12T03:26:36.133Z,1.00
2023-01-12T03:29:08.707Z,1.00
2023-01-12T03:31:37.827Z,99.90
2023-01-12T03:34:08.776Z,99.90
2023-01-12T03:36:47.015Z,1.00
2023-01-12T03:39:22.642Z,1.00
2023-01-12T03:41:58.299Z,1.00
2023-01-12T03:44:33.526Z,1.00
2023-01-12T03:47:06.603Z,1.00
2023-01-12T03:49:41.264Z,99.90
2023-01-12T03:52:10.952Z,99.90
2023-01-12T03:54:41.689Z,99.90
2023-01-12T03:57:12.223Z,99.90
2023-01-12T03:59:40.792Z,28.90
2023-01-12T04:02:09.945Z,26.00
2023-01-12T04:04:39.646Z,1.00
2023-01-12T04:07:07.969Z,1.00
2023-01-12T04:09:36.150Z,1.00
2023-01-12T04:12:13.408Z,1.00
2023-01-12T04:14:44.214Z,1.00
2023-01-12T04:17:14.914Z,1.00
2023-01-12T04:19:44.499Z,1.00
2023-01-12T04:22:34.385Z,1.00
2023-01-12T04:25:02.745Z,1.00
2023-01-12T04:27:30.870Z,1.00
2023-01-12T04:29:59.126Z,1.00
2023-01-12T04:32:27.315Z,1.00
2023-01-12T04:34:56.842Z,1.00
2023-01-12T04:37:25.164Z,1.00
2023-01-12T04:39:53.349Z,1.00
2023-01-12T04:42:39.287Z,1.00
2023-01-12T04:45:08.435Z,1.00
2023-01-12T04:47:36.547Z,1.00
2023-01-12T04:50:07.311Z,1.00
2023-01-12T04:52:36.001Z,1.00
2023-01-12T04:55:04.793Z,1.00
2023-01-12T04:57:33.440Z,1.00
2023-01-12T05:00:01.609Z,1.00
2023-01-12T05:02:30.037Z,1.00
2023-01-12T05:04:58.263Z,1.00
2023-01-12T05:07:27.828Z,1.00
2023-01-12T05:10:13.322Z,1.00
2023-01-12T05:12:41.523Z,1.00
2023-01-12T05:15:10.357Z,1.00
2023-01-12T05:17:38.613Z,1.00
2023-01-12T05:20:08.825Z,1.00
2023-01-12T05:22:38.434Z,1.00
2023-01-12T05:25:07.607Z,1.00
2023-01-12T05:27:35.875Z,1.00
2023-01-12T05:30:04.177Z,1.00
2023-01-12T05:32:37.069Z,1.00
2023-01-12T05:35:05.981Z,1.00
2023-01-12T05:37:34.149Z,1.00
2023-01-12T05:40:03.869Z,1.00
2023-01-12T05:42:49.626Z,1.00
2023-01-12T05:45:18.361Z,1.00
2023-01-12T05:47:46.561Z,1.00
2023-01-12T05:50:14.818Z,1.00
2023-01-12T05:52:43.119Z,1.00
2023-01-12T05:55:12.946Z,1.00
2023-01-12T05:57:41.068Z,1.00
2023-01-12T06:00:10.582Z,1.00
2023-01-12T06:02:40.393Z,1.00
2023-01-12T06:05:09.612Z,1.00
2023-01-12T06:07:38.149Z,1.00
2023-01-12T06:10:07.241Z,1.00
2023-01-12T06:12:50.669Z,1.00
2023-01-12T06:15:18.862Z,1.00
2023-01-12T06:17:46.989Z,1.00
2023-01-12T06:20:17.350Z,1.00
2023-01-12T06:22:45.801Z,1.00
2023-01-12T06:25:14.391Z,1.00
2023-01-12T06:27:43.899Z,1.00
2023-01-12T06:30:13.277Z,1.00
2023-01-12T06:32:41.642Z,1.00
2023-01-12T06:35:18.569Z,1.00
2023-01-12T06:37:48.293Z,1.00
2023-01-12T06:40:16.965Z,1.00
2023-01-12T06:42:46.492Z,1.00
2023-01-12T06:45:14.679Z,1.00
2023-01-12T06:47:47.020Z,1.00
2023-01-12T06:50:15.297Z,1.00
2023-01-12T06:52:43.750Z,1.00
2023-01-12T06:55:12.138Z,1.00
2023-01-12T06:57:40.247Z,1.00
2023-01-12T07:00:13.201Z,1.00
2023-01-12T07:02:41.364Z,1.00
2023-01-12T07:05:10.215Z,1.00
2023-01-12T07:07:40.402Z,1.00
2023-01-12T07:10:09.500Z,1.00
2023-01-12T07:12:37.810Z,1.00
2023-01-12T07:15:06.747Z,1.00
2023-01-12T07:17:36.401Z,1.00
2023-01-12T07:20:04.763Z,1.00
2023-01-12T07:22:33.154Z,1.00
2023-01-12T07:25:01.228Z,1.00
2023-01-12T07:27:29.443Z,1.00
2023-01-12T07:29:57.626Z,1.00
2023-01-12T07:32:29.596Z,1.00
2023-01-12T07:34:59.333Z,1.00
2023-01-12T07:37:27.491Z,1.00
2023-01-12T07:39:58.278Z,1.00
2023-01-12T07:42:27.264Z,1.00
2023-01-12T07:44:55.422Z,1.00
2023-01-12T07:47:23.647Z,1.00
2023-01-12T07:49:52.135Z,1.00
2023-01-12T07:52:21.731Z,1.00
2023-01-12T07:54:49.862Z,1.00
2023-01-12T07:57:18.622Z,1.00
2023-01-12T07:59:46.783Z,1.00
2023-01-12T08:02:17.059Z,1.00
2023-01-12T08:04:45.820Z,1.00
2023-01-12T08:07:15.361Z,1.00
2023-01-12T08:09:45.033Z,1.00
2023-01-12T08:12:13.622Z,1.00
2023-01-12T08:14:43.452Z,1.00
2023-01-12T08:17:17.750Z,1.00
2023-01-12T08:19:51.995Z,1.00
2023-01-12T08:22:23.500Z,1.00
2023-01-12T08:24:59.861Z,1.00
2023-01-12T08:27:31.074Z,1.00
2023-01-12T08:30:00.005Z,1.00
2023-01-12T08:32:29.352Z,1.00
2023-01-12T08:35:02.222Z,1.00
2023-01-12T08:37:33.778Z,1.00
2023-01-12T08:40:05.682Z,1.00
2023-01-12T08:42:33.888Z,1.00
2023-01-12T08:45:02.083Z,1.00
2023-01-12T08:47:30.780Z,1.00
2023-01-12T08:50:00.477Z,1.00
2023-01-12T08:52:32.125Z,1.00
2023-01-12T08:55:00.325Z,1.00
2023-01-12T08:57:30.143Z,1.00
2023-01-12T08:59:58.622Z,1.00
2023-01-12T09:02:27.213Z,1.00
2023-01-12T09:04:55.618Z,1.00
2023-01-12T09:07:23.777Z,1.00
2023-01-12T09:09:52.066Z,1.00
2023-01-12T09:12:20.176Z,1.00
2023-01-12T09:14:49.816Z,1.00
2023-01-12T09:17:19.332Z,1.00
2023-01-12T09:19:49.937Z,1.00
2023-01-12T09:22:18.151Z,1.00
2023-01-12T09:24:46.729Z,1.00
2023-01-12T09:27:14.839Z,1.00
2023-01-12T09:29:43.123Z,1.00
2023-01-12T09:32:12.640Z,1.00
2023-01-12T09:34:40.917Z,1.00
2023-01-12T09:37:09.176Z,1.00
2023-01-12T09:39:37.394Z,1.00
2023-01-12T09:42:24.945Z,1.00
2023-01-12T09:45:11.891Z,1.00
2023-01-12T09:47:50.706Z,1.00
2023-01-12T09:50:23.202Z,1.00
2023-01-12T09:52:55.024Z,1.00
2023-01-12T09:55:26.408Z,1.00
2023-01-12T09:58:11.419Z,1.00
2023-01-12T10:00:39.628Z,1.00
2023-01-12T10:03:15.800Z,1.00
2023-01-12T10:05:48.852Z,1.00
2023-01-12T10:08:29.738Z,1.00
2023-01-12T10:11:11.996Z,1.00
2023-01-12T10:14:14.705Z,1.00
2023-01-12T10:16:54.394Z,1.00
2023-01-12T10:19:31.468Z,1.00
2023-01-12T10:22:04.052Z,1.00
2023-01-12T10:24:32.834Z,1.00
2023-01-12T10:27:03.422Z,1.00
2023-01-12T10:29:33.389Z,1.00
2023-01-12T10:32:01.616Z,99.90
2023-01-12T10:34:50.015Z,99.90
2023-01-12T10:37:18.250Z,99.90
2023-01-12T10:39:46.699Z,99.90
2023-01-12T10:42:38.515Z,99.90
2023-01-12T10:45:20.560Z,99.90
2023-01-12T10:47:50.748Z,99.90
2023-01-12T10:50:27.412Z,99.90
2023-01-12T10:52:59.814Z,99.90
2023-01-12T10:55:33.523Z,99.90
2023-01-12T10:58:02.205Z,99.90
2023-01-12T11:00:31.143Z,99.90
2023-01-12T11:02:59.513Z,99.90
2023-01-12T11:05:34.099Z,99.90
2023-01-12T11:08:02.682Z,99.90
2023-01-12T11:10:33.424Z,99.90
2023-01-12T11:13:04.460Z,99.90
2023-01-12T11:15:39.107Z,99.90
2023-01-12T11:18:33.580Z,99.90
2023-01-12T11:21:06.919Z,99.90
2023-01-12T11:23:41.846Z,99.90
2023-01-12T11:26:18.498Z,99.90
2023-01-12T11:28:50.472Z,99.90
2023-01-12T11:31:23.737Z,99.90
2023-01-12T11:33:57.051Z,99.90
2023-01-12T11:36:29.115Z,99.90
2023-01-12T11:39:03.225Z,99.90
2023-01-12T11:41:40.050Z,99.90
2023-01-12T11:44:16.840Z,99.90
2023-01-12T11:46:47.616Z,99.90
2023-01-12T11:49:24.104Z,99.90
2023-01-12T11:51:57.267Z,99.90
2023-01-12T11:54:28.353Z,99.90
2023-01-12T11:57:21.996Z,99.90
2023-01-12T12:00:04.157Z,99.90
2023-01-12T12:02:42.838Z,99.90
2023-01-12T12:05:28.236Z,99.90
2023-01-12T12:08:13.439Z,99.90
2023-01-12T12:10:48.930Z,99.90
2023-01-12T12:13:36.664Z,99.90
2023-01-12T12:16:20.951Z,99.90
2023-01-12T12:19:14.684Z,99.90
2023-01-12T12:21:49.159Z,99.90
2023-01-12T12:24:41.586Z,99.90
2023-01-12T12:27:17.115Z,99.90
2023-01-12T12:30:15.268Z,99.90
2023-01-12T12:32:50.263Z,99.90
2023-01-12T12:35:41.262Z,99.90
2023-01-12T12:38:23.384Z,99.90
2023-01-12T12:41:23.917Z,99.90
2023-01-12T12:44:20.230Z,99.90
2023-01-12T12:46:56.264Z,99.90
2023-01-12T12:49:29.529Z,99.90
2023-01-12T12:51:58.911Z,99.90
2023-01-12T12:54:29.009Z,99.90
2023-01-12T12:56:59.814Z,99.90
2023-01-12T12:59:54.655Z,99.90
2023-01-12T13:02:34.356Z,99.90
2023-01-12T13:05:05.612Z,99.90
2023-01-12T13:07:38.541Z,99.90
2023-01-12T13:10:30.040Z,99.90
2023-01-12T13:13:05.884Z,99.90
2023-01-12T13:15:37.711Z,99.90
2023-01-12T13:18:07.211Z,99.90
2023-01-12T13:20:55.730Z,99.90
2023-01-12T13:24:11.989Z,99.90
2023-01-12T13:26:44.406Z,99.90
2023-01-12T13:29:41.389Z,99.90
2023-01-12T13:32:52.187Z,99.90
2023-01-12T13:36:10.535Z,99.90
2023-01-12T13:39:07.178Z,99.90
2023-01-12T13:41:54.264Z,99.90
2023-01-12T13:44:27.318Z,99.90
2023-01-12T13:47:09.589Z,99.90
2023-01-12T13:49:47.093Z,99.90
2023-01-12T13:52:29.038Z,99.90
2023-01-12T13:54:57.552Z,99.90
2023-01-12T13:57:27.711Z,99.90
2023-01-12T14:00:08.828Z,99.90
2023-01-12T14:02:44.276Z,99.90
2023-01-12T14:05:32.844Z,99.90
2023-01-12T14:08:20.396Z,99.90
2023-01-12T14:10:56.196Z,99.90
2023-01-12T14:13:51.760Z,99.90
2023-01-12T14:16:37.630Z,99.90
2023-01-12T14:19:28.571Z,99.90
2023-01-12T14:22:00.100Z,99.90
2023-01-12T14:24:28.344Z,99.90
2023-01-12T14:26:56.716Z,99.90
2023-01-12T14:29:25.021Z,99.90
2023-01-12T14:31:54.822Z,99.90
2023-01-12T14:34:32.579Z,99.90
2023-01-12T14:37:01.799Z,99.90
2023-01-12T14:39:36.676Z,99.90
2023-01-12T14:42:22.881Z,99.90
2023-01-12T14:45:10.373Z,99.90
2023-01-12T14:47:39.099Z,99.90
2023-01-12T14:50:21.184Z,99.90
2023-01-12T14:52:53.409Z,99.90
2023-01-12T14:55:37.729Z,99.90
2023-01-12T14:58:07.422Z,99.90
2023-01-12T15:00:38.341Z,99.90
2023-01-12T15:03:22.736Z,99.90
2023-01-12T15:05:56.005Z,99.90
2023-01-12T15:08:27.050Z,99.90
2023-01-12T15:11:00.813Z,99.90
2023-01-12T15:13:32.840Z,99.90
2023-01-12T15:16:20.574Z,99.90
2023-01-12T15:19:06.431Z,99.90
2023-01-12T15:21:55.000Z,99.90
2023-01-12T15:24:42.968Z,99.90
2023-01-12T15:27:13.298Z,99.90
2023-01-12T15:29:41.443Z,99.90
2023-01-12T15:32:15.243Z,99.90
2023-01-12T15:34:43.526Z,99.90
2023-01-12T15:37:16.231Z,99.90
2023-01-12T15:39:44.579Z,99.90
2023-01-12T15:42:17.093Z,99.90
2023-01-12T15:44:45.532Z,99.90
2023-01-12T15:47:14.637Z,99.90
2023-01-12T15:49:44.241Z,99.90
2023-01-12T15:52:15.976Z,99.90
2023-01-12T15:54:44.251Z,99.90
2023-01-12T15:57:13.692Z,99.90
2023-01-12T15:59:42.366Z,99.90
2023-01-12T16:02:31.154Z,99.90
2023-01-12T16:05:00.208Z,99.90
2023-01-12T16:07:29.858Z,99.90
2023-01-12T16:09:58.156Z,99.90
2023-01-12T16:12:26.387Z,99.90
2023-01-12T16:14:56.556Z,99.90
2023-01-12T16:17:24.755Z,99.90
2023-01-12T16:19:53.035Z,99.90
2023-01-12T16:22:23.071Z,99.90
2023-01-12T16:24:54.410Z,99.90
2023-01-12T16:27:24.679Z,99.90
2023-01-12T16:29:52.866Z,99.90
2023-01-12T16:32:24.392Z,99.90
2023-01-12T16:34:53.052Z,99.90
2023-01-12T16:37:23.155Z,99.90
2023-01-12T16:39:52.956Z,99.90
2023-01-12T16:42:21.290Z,99.90
2023-01-12T16:44:50.888Z,99.90
2023-01-12T16:47:21.554Z,99.90
2023-01-12T16:49:50.968Z,99.90
2023-01-12T16:52:21.234Z,99.90
2023-01-12T16:54:49.489Z,1.00
2023-01-12T16:57:19.861Z,99.90
2023-01-12T16:59:49.627Z,99.90
2023-01-12T17:02:20.076Z,99.90
2023-01-12T17:04:52.009Z,99.90
2023-01-12T17:07:20.875Z,99.90
2023-01-12T17:09:49.201Z,99.90
2023-01-12T17:12:18.849Z,99.90
2023-01-12T17:14:47.530Z,99.90
2023-01-12T17:17:16.007Z,99.90
2023-01-12T17:19:45.155Z,99.90
2023-01-12T17:22:14.581Z,99.90
2023-01-12T17:24:43.073Z,99.90
2023-01-12T17:27:12.028Z,99.90
2023-01-12T17:29:41.639Z,99.90
2023-01-12T17:32:09.944Z,99.90
2023-01-12T17:34:40.111Z,99.90
2023-01-12T17:37:09.098Z,99.90
2023-01-12T17:39:39.819Z,99.90
2023-01-12T17:42:26.276Z,99.90
2023-01-12T17:44:55.937Z,99.90
2023-01-12T17:47:24.879Z,99.90
2023-01-12T17:49:54.332Z,99.90
2023-01-12T17:52:22.558Z,99.90
2023-01-12T17:54:50.854Z,99.90
2023-01-12T17:57:19.076Z,99.90
2023-01-12T17:59:47.393Z,99.90
2023-01-12T18:02:18.164Z,99.90
2023-01-12T18:04:46.995Z,99.90
2023-01-12T18:07:15.178Z,99.90
2023-01-12T18:09:43.436Z,99.90
2023-01-12T18:12:12.775Z,1.00
2023-01-12T18:14:41.066Z,99.90
2023-01-12T18:17:10.963Z,99.90
2023-01-12T18:19:42.317Z,99.90
2023-01-12T18:22:11.195Z,99.90
2023-01-12T18:24:39.458Z,99.90
2023-01-12T18:27:07.729Z,99.90
2023-01-12T18:29:36.103Z,99.90
2023-01-12T18:32:04.490Z,99.90
2023-01-12T18:34:32.720Z,99.90
2023-01-12T18:37:02.307Z,99.90
2023-01-12T18:39:30.452Z,99.90
2023-01-12T18:42:16.290Z,99.90
2023-01-12T18:44:44.489Z,99.90
2023-01-12T18:47:33.333Z,99.90
2023-01-12T18:50:22.808Z,99.90
2023-01-12T18:53:09.926Z,99.90
2023-01-12T18:55:38.456Z,99.90
2023-01-12T18:58:06.722Z,99.90
2023-01-12T19:00:35.053Z,99.90
2023-01-12T19:03:04.142Z,99.90
2023-01-12T19:05:43.584Z,99.90
2023-01-12T19:08:30.666Z,99.90
2023-01-12T19:11:08.883Z,99.90
2023-01-12T19:13:54.759Z,99.90
2023-01-12T19:16:41.040Z,99.90
2023-01-12T19:19:09.428Z,99.90
2023-01-12T19:21:55.415Z,99.90
2023-01-12T19:24:42.531Z,99.90
2023-01-12T19:27:30.986Z,99.90
2023-01-12T19:29:59.252Z,99.90
2023-01-12T19:32:27.470Z,99.90
2023-01-12T19:35:02.223Z,99.90
2023-01-12T19:37:38.422Z,99.90
2023-01-12T19:40:17.546Z,99.90
2023-01-12T19:43:03.130Z,99.90
2023-01-12T19:45:31.452Z,99.90
2023-01-12T19:47:59.664Z,99.90
2023-01-12T19:50:27.929Z,99.90
2023-01-12T19:52:57.433Z,99.90
2023-01-12T19:55:28.304Z,99.90
2023-01-12T19:57:57.191Z,99.90
2023-01-12T20:00:26.286Z,99.90
2023-01-12T20:02:54.963Z,99.90
2023-01-12T20:05:23.527Z,99.90
2023-01-12T20:07:53.387Z,99.90
2023-01-12T20:10:22.831Z,99.90
2023-01-12T20:12:52.566Z,99.90
2023-01-12T20:15:21.767Z,99.90
2023-01-12T20:17:52.802Z,99.90
2023-01-12T20:20:21.376Z,99.90
2023-01-12T20:22:50.944Z,99.90
2023-01-12T20:25:19.960Z,99.90
2023-01-12T20:27:49.277Z,99.90
2023-01-12T20:30:31.911Z,99.90
2023-01-12T20:33:05.097Z,99.90
2023-01-12T20:35:33.331Z,99.90
2023-01-12T20:38:03.539Z,99.90
2023-01-12T20:40:31.792Z,99.90
2023-01-12T20:43:00.081Z,99.90
2023-01-12T20:45:29.626Z,99.90
2023-01-12T20:47:58.229Z,99.90
2023-01-12T20:50:26.482Z,99.90
2023-01-12T20:52:55.194Z,99.90
2023-01-12T20:55:23.359Z,99.90
2023-01-12T20:57:51.588Z,99.90
2023-01-12T21:00:20.040Z,99.90
2023-01-12T21:02:49.625Z,99.90
2023-01-12T21:05:18.104Z,99.90
2023-01-12T21:07:52.051Z,99.90
2023-01-12T21:10:22.511Z,99.90
2023-01-12T21:12:50.676Z,99.90
2023-01-12T21:15:19.092Z,99.90
2023-01-12T21:17:47.319Z,99.90
2023-01-12T21:20:17.234Z,99.90
2023-01-12T21:22:45.417Z,99.90
2023-01-12T21:25:13.900Z,99.90
2023-01-12T21:27:42.267Z,99.90
2023-01-12T21:30:12.407Z,99.90
2023-01-12T21:32:42.834Z,99.90
2023-01-12T21:35:11.174Z,99.90
2023-01-12T21:37:40.692Z,99.90
2023-01-12T21:40:10.428Z,99.90
2023-01-12T21:42:55.903Z,99.90
2023-01-12T21:45:26.350Z,99.90
2023-01-12T21:47:55.786Z,99.90
2023-01-12T21:50:24.227Z,99.90
2023-01-12T21:52:53.838Z,99.90
2023-01-12T21:55:22.127Z,99.90
2023-01-12T21:57:50.300Z,99.90
2023-01-12T22:00:19.109Z,99.90
2023-01-12T22:02:47.270Z,99.90
2023-01-12T22:05:16.650Z,99.90
2023-01-12T22:07:44.956Z,99.90
2023-01-12T22:10:20.496Z,99.90
2023-01-12T22:12:49.599Z,99.90
2023-01-12T22:15:18.048Z,99.90
2023-01-12T22:17:46.650Z,99.90
2023-01-12T22:20:16.846Z,99.90
2023-01-12T22:22:45.902Z,99.90
2023-01-12T22:25:17.732Z,99.90
2023-01-12T22:27:46.652Z,99.90
2023-01-12T22:30:17.336Z,99.90
2023-01-12T22:32:45.639Z,99.90
2023-01-12T22:35:14.744Z,99.90
2023-01-12T22:37:43.161Z,99.90
2023-01-12T22:40:13.508Z,99.90
2023-01-12T22:43:00.892Z,99.90
2023-01-12T22:45:29.519Z,99.90
2023-01-12T22:47:57.766Z,99.90
2023-01-12T22:50:26.044Z,99.90
2023-01-12T22:52:54.916Z,99.90
2023-01-12T22:55:24.359Z,99.90
2023-01-12T22:57:54.076Z,99.90
2023-01-12T23:00:22.847Z,99.90
2023-01-12T23:03:03.355Z,99.90
2023-01-12T23:05:36.524Z,99.90
2023-01-12T23:08:06.194Z,99.90
2023-01-12T23:10:34.893Z,99.90
2023-01-12T23:13:15.788Z,99.90
2023-01-12T23:15:49.672Z,99.90
2023-01-12T23:18:19.935Z,99.90
2023-01-12T23:20:49.295Z,99.90
2023-01-12T23:23:18.726Z,99.90
2023-01-12T23:25:48.173Z,99.90
2023-01-12T23:28:17.945Z,99.90
2023-01-12T23:30:46.229Z,99.90
2023-01-12T23:33:14.498Z,99.90
2023-01-12T23:35:43.436Z,99.90
2023-01-12T23:38:16.264Z,99.90
2023-01-12T23:40:44.642Z,99.90
2023-01-12T23:43:12.856Z,99.90
2023-01-12T23:45:42.532Z,99.90
2023-01-12T23:48:10.702Z,99.90
2023-01-12T23:50:38.960Z,99.90
2023-01-12T23:53:07.331Z,99.90
2023-01-12T23:55:38.543Z,99.90
2023-01-12T23:58:08.200Z,99.90
